sensor_id;sensor_type;location;lat;lon;timestamp;P1;durP1;ratioP1;P2;durP2;ratioP2
54929;SDS011;40833;53.238;6.576;2022-10-31T00:02:18;38.73;;;17.23;;
54929;SDS011;40833;53.238;6.576;2022-10-31T00:04:44;45.27;;;18.03;;
54929;SDS011;40833;53.238;6.576;2022-10-31T00:07:09;50.87;;;18.47;;
54929;SDS011;40833;53.238;6.576;2022-10-31T00:09:35;39.50;;;18.43;;
54929;SDS011;40833;53.238;6.576;2022-10-31T00:12:01;38.33;;;18.47;;
54929;SDS011;40833;53.238;6.576;2022-10-31T00:14:26;40.00;;;18.43;;
54929;SDS011;40833;53.238;6.576;2022-10-31T00:16:52;46.40;;;18.67;;
54929;SDS011;40833;53.238;6.576;2022-10-31T00:19:18;35.13;;;17.57;;
54929;SDS011;40833;53.238;6.576;2022-10-31T00:21:43;42.00;;;18.77;;
54929;SDS011;40833;53.238;6.576;2022-10-31T00:24:10;43.13;;;19.00;;
54929;SDS011;40833;53.238;6.576;2022-10-31T00:26:35;45.63;;;19.57;;
54929;SDS011;40833;53.238;6.576;2022-10-31T00:29:01;47.43;;;20.30;;
54929;SDS011;40833;53.238;6.576;2022-10-31T00:31:27;45.53;;;20.27;;
54929;SDS011;40833;53.238;6.576;2022-10-31T00:33:53;46.47;;;20.20;;
54929;SDS011;40833;53.238;6.576;2022-10-31T00:36:19;45.17;;;20.77;;
54929;SDS011;40833;53.238;6.576;2022-10-31T00:38:48;40.53;;;20.60;;
54929;SDS011;40833;53.238;6.576;2022-10-31T00:41:14;48.60;;;21.60;;
54929;SDS011;40833;53.238;6.576;2022-10-31T00:43:41;41.70;;;21.23;;
54929;SDS011;40833;53.238;6.576;2022-10-31T00:46:08;44.47;;;20.20;;
54929;SDS011;40833;53.238;6.576;2022-10-31T00:48:34;45.63;;;22.10;;
54929;SDS011;40833;53.238;6.576;2022-10-31T00:50:59;47.33;;;22.07;;
54929;SDS011;40833;53.238;6.576;2022-10-31T00:53:25;44.93;;;21.30;;
54929;SDS011;40833;53.238;6.576;2022-10-31T00:55:51;51.17;;;22.33;;
54929;SDS011;40833;53.238;6.576;2022-10-31T00:58:17;49.47;;;21.93;;
54929;SDS011;40833;53.238;6.576;2022-10-31T01:00:42;56.23;;;23.90;;
54929;SDS011;40833;53.238;6.576;2022-10-31T01:03:08;46.80;;;23.77;;
54929;SDS011;40833;53.238;6.576;2022-10-31T01:05:34;48.27;;;24.40;;
54929;SDS011;40833;53.238;6.576;2022-10-31T01:07:59;48.10;;;22.77;;
54929;SDS011;40833;53.238;6.576;2022-10-31T01:10:25;51.73;;;23.40;;
54929;SDS011;40833;53.238;6.576;2022-10-31T01:12:51;47.03;;;25.00;;
54929;SDS011;40833;53.238;6.576;2022-10-31T01:15:18;50.13;;;23.93;;
54929;SDS011;40833;53.238;6.576;2022-10-31T01:17:46;49.13;;;22.03;;
54929;SDS011;40833;53.238;6.576;2022-10-31T01:20:16;54.13;;;23.57;;
54929;SDS011;40833;53.238;6.576;2022-10-31T01:22:42;47.33;;;24.17;;
54929;SDS011;40833;53.238;6.576;2022-10-31T01:25:08;48.30;;;22.77;;
54929;SDS011;40833;53.238;6.576;2022-10-31T01:27:35;45.63;;;22.20;;
54929;SDS011;40833;53.238;6.576;2022-10-31T01:30:00;41.70;;;21.43;;
54929;SDS011;40833;53.238;6.576;2022-10-31T01:32:26;45.20;;;22.40;;
54929;SDS011;40833;53.238;6.576;2022-10-31T01:34:54;45.33;;;22.20;;
54929;SDS011;40833;53.238;6.576;2022-10-31T01:37:23;42.03;;;20.43;;
54929;SDS011;40833;53.238;6.576;2022-10-31T01:39:48;51.20;;;22.93;;
54929;SDS011;40833;53.238;6.576;2022-10-31T01:42:18;45.63;;;20.90;;
54929;SDS011;40833;53.238;6.576;2022-10-31T01:44:56;42.83;;;21.63;;
54929;SDS011;40833;53.238;6.576;2022-10-31T01:47:27;55.70;;;21.53;;
54929;SDS011;40833;53.238;6.576;2022-10-31T01:50:06;45.30;;;22.10;;
54929;SDS011;40833;53.238;6.576;2022-10-31T01:52:42;38.73;;;19.13;;
54929;SDS011;40833;53.238;6.576;2022-10-31T01:55:19;46.67;;;21.37;;
54929;SDS011;40833;53.238;6.576;2022-10-31T01:57:50;43.57;;;20.60;;
54929;SDS011;40833;53.238;6.576;2022-10-31T02:00:19;45.60;;;20.27;;
54929;SDS011;40833;53.238;6.576;2022-10-31T02:02:45;42.40;;;20.87;;
54929;SDS011;40833;53.238;6.576;2022-10-31T02:05:14;37.23;;;20.00;;
54929;SDS011;40833;53.238;6.576;2022-10-31T02:07:45;39.30;;;19.57;;
54929;SDS011;40833;53.238;6.576;2022-10-31T02:10:22;41.13;;;20.60;;
54929;SDS011;40833;53.238;6.576;2022-10-31T02:12:48;35.70;;;18.37;;
54929;SDS011;40833;53.238;6.576;2022-10-31T02:15:17;41.57;;;19.37;;
54929;SDS011;40833;53.238;6.576;2022-10-31T02:17:43;39.53;;;19.63;;
54929;SDS011;40833;53.238;6.576;2022-10-31T02:33:45;40.83;;;18.83;;
54929;SDS011;40833;53.238;6.576;2022-10-31T02:41:59;40.50;;;19.63;;
54929;SDS011;40833;53.238;6.576;2022-10-31T02:47:26;41.30;;;20.70;;
54929;SDS011;40833;53.238;6.576;2022-10-31T02:50:01;43.53;;;21.33;;
54929;SDS011;40833;53.238;6.576;2022-10-31T02:52:51;44.37;;;19.97;;
54929;SDS011;40833;53.238;6.576;2022-10-31T02:57:57;46.40;;;20.90;;
54929;SDS011;40833;53.238;6.576;2022-10-31T03:00:27;43.30;;;20.75;;
54929;SDS011;40833;53.238;6.576;2022-10-31T03:05:48;42.70;;;21.13;;
54929;SDS011;40833;53.238;6.576;2022-10-31T03:08:43;45.40;;;21.00;;
54929;SDS011;40833;53.238;6.576;2022-10-31T03:11:22;38.23;;;20.07;;
54929;SDS011;40833;53.238;6.576;2022-10-31T03:14:05;46.95;;;22.55;;
54929;SDS011;40833;53.238;6.576;2022-10-31T03:19:18;43.50;;;22.15;;
54929;SDS011;40833;53.238;6.576;2022-10-31T03:22:00;47.88;;;22.38;;
54929;SDS011;40833;53.238;6.576;2022-10-31T03:24:27;42.33;;;20.83;;
54929;SDS011;40833;53.238;6.576;2022-10-31T03:26:57;42.50;;;22.47;;
54929;SDS011;40833;53.238;6.576;2022-10-31T03:29:26;46.50;;;21.87;;
54929;SDS011;40833;53.238;6.576;2022-10-31T03:31:59;45.30;;;20.80;;
54929;SDS011;40833;53.238;6.576;2022-10-31T03:34:27;49.07;;;22.67;;
54929;SDS011;40833;53.238;6.576;2022-10-31T03:36:56;46.30;;;22.23;;
54929;SDS011;40833;53.238;6.576;2022-10-31T03:39:24;40.77;;;20.97;;
54929;SDS011;40833;53.238;6.576;2022-10-31T03:42:13;44.87;;;21.73;;
54929;SDS011;40833;53.238;6.576;2022-10-31T03:44:41;47.50;;;22.20;;
54929;SDS011;40833;53.238;6.576;2022-10-31T03:47:11;34.23;;;20.50;;
54929;SDS011;40833;53.238;6.576;2022-10-31T03:49:37;43.63;;;21.20;;
54929;SDS011;40833;53.238;6.576;2022-10-31T03:54:42;42.87;;;20.70;;
54929;SDS011;40833;53.238;6.576;2022-10-31T04:00:09;39.37;;;19.50;;
54929;SDS011;40833;53.238;6.576;2022-10-31T04:02:40;38.70;;;20.40;;
54929;SDS011;40833;53.238;6.576;2022-10-31T04:05:10;42.10;;;19.90;;
54929;SDS011;40833;53.238;6.576;2022-10-31T04:07:39;38.13;;;19.80;;
54929;SDS011;40833;53.238;6.576;2022-10-31T04:10:08;41.13;;;18.73;;
54929;SDS011;40833;53.238;6.576;2022-10-31T04:12:37;39.60;;;19.77;;
54929;SDS011;40833;53.238;6.576;2022-10-31T04:15:05;43.43;;;20.60;;
54929;SDS011;40833;53.238;6.576;2022-10-31T04:17:33;41.93;;;19.90;;
54929;SDS011;40833;53.238;6.576;2022-10-31T04:20:05;48.50;;;20.97;;
54929;SDS011;40833;53.238;6.576;2022-10-31T04:22:31;38.07;;;21.87;;
54929;SDS011;40833;53.238;6.576;2022-10-31T04:24:57;38.80;;;20.17;;
54929;SDS011;40833;53.238;6.576;2022-10-31T04:27:23;44.40;;;20.30;;
54929;SDS011;40833;53.238;6.576;2022-10-31T04:29:48;41.37;;;21.20;;
54929;SDS011;40833;53.238;6.576;2022-10-31T04:32:14;38.67;;;20.77;;
54929;SDS011;40833;53.238;6.576;2022-10-31T04:34:39;39.07;;;19.63;;
54929;SDS011;40833;53.238;6.576;2022-10-31T04:37:05;47.73;;;22.03;;
54929;SDS011;40833;53.238;6.576;2022-10-31T04:39:31;41.13;;;21.77;;
54929;SDS011;40833;53.238;6.576;2022-10-31T04:41:56;40.53;;;20.33;;
54929;SDS011;40833;53.238;6.576;2022-10-31T04:44:22;42.30;;;20.53;;
54929;SDS011;40833;53.238;6.576;2022-10-31T04:46:48;43.13;;;20.37;;
54929;SDS011;40833;53.238;6.576;2022-10-31T04:49:14;40.43;;;20.13;;
54929;SDS011;40833;53.238;6.576;2022-10-31T04:51:39;35.00;;;19.77;;
54929;SDS011;40833;53.238;6.576;2022-10-31T04:54:05;37.40;;;19.93;;
54929;SDS011;40833;53.238;6.576;2022-10-31T04:56:34;41.00;;;20.27;;
54929;SDS011;40833;53.238;6.576;2022-10-31T04:58:59;39.93;;;21.13;;
54929;SDS011;40833;53.238;6.576;2022-10-31T05:01:25;38.27;;;20.10;;
54929;SDS011;40833;53.238;6.576;2022-10-31T05:03:51;40.03;;;20.70;;
54929;SDS011;40833;53.238;6.576;2022-10-31T05:06:17;46.43;;;20.93;;
54929;SDS011;40833;53.238;6.576;2022-10-31T05:08:43;41.80;;;21.07;;
54929;SDS011;40833;53.238;6.576;2022-10-31T05:11:08;38.73;;;20.50;;
54929;SDS011;40833;53.238;6.576;2022-10-31T05:13:34;37.97;;;20.47;;
54929;SDS011;40833;53.238;6.576;2022-10-31T05:15:59;39.80;;;21.67;;
54929;SDS011;40833;53.238;6.576;2022-10-31T05:18:25;45.87;;;22.07;;
54929;SDS011;40833;53.238;6.576;2022-10-31T05:20:51;40.33;;;21.67;;
54929;SDS011;40833;53.238;6.576;2022-10-31T05:23:17;38.03;;;20.70;;
54929;SDS011;40833;53.238;6.576;2022-10-31T05:25:42;39.20;;;21.87;;
54929;SDS011;40833;53.238;6.576;2022-10-31T05:28:08;50.40;;;22.00;;
54929;SDS011;40833;53.238;6.576;2022-10-31T05:30:34;38.87;;;20.53;;
54929;SDS011;40833;53.238;6.576;2022-10-31T05:32:59;47.53;;;22.20;;
54929;SDS011;40833;53.238;6.576;2022-10-31T05:35:26;43.57;;;23.20;;
54929;SDS011;40833;53.238;6.576;2022-10-31T05:37:54;45.87;;;22.97;;
54929;SDS011;40833;53.238;6.576;2022-10-31T05:40:20;46.17;;;22.80;;
54929;SDS011;40833;53.238;6.576;2022-10-31T05:42:46;47.07;;;22.93;;
54929;SDS011;40833;53.238;6.576;2022-10-31T05:45:15;45.97;;;23.47;;
54929;SDS011;40833;53.238;6.576;2022-10-31T05:47:42;48.27;;;22.50;;
54929;SDS011;40833;53.238;6.576;2022-10-31T05:50:15;38.90;;;22.23;;
54929;SDS011;40833;53.238;6.576;2022-10-31T05:52:40;44.23;;;22.83;;
54929;SDS011;40833;53.238;6.576;2022-10-31T05:55:06;41.80;;;22.57;;
54929;SDS011;40833;53.238;6.576;2022-10-31T05:57:32;43.83;;;21.80;;
54929;SDS011;40833;53.238;6.576;2022-10-31T05:59:58;41.83;;;22.67;;
54929;SDS011;40833;53.238;6.576;2022-10-31T06:02:25;44.77;;;22.20;;
54929;SDS011;40833;53.238;6.576;2022-10-31T06:04:51;38.40;;;21.57;;
54929;SDS011;40833;53.238;6.576;2022-10-31T06:07:17;48.17;;;22.73;;
54929;SDS011;40833;53.238;6.576;2022-10-31T06:09:43;41.13;;;22.60;;
54929;SDS011;40833;53.238;6.576;2022-10-31T06:12:09;47.03;;;22.40;;
54929;SDS011;40833;53.238;6.576;2022-10-31T06:14:35;52.97;;;24.63;;
54929;SDS011;40833;53.238;6.576;2022-10-31T06:17:00;45.77;;;23.33;;
54929;SDS011;40833;53.238;6.576;2022-10-31T06:19:26;47.77;;;23.10;;
54929;SDS011;40833;53.238;6.576;2022-10-31T06:21:52;48.50;;;22.70;;
54929;SDS011;40833;53.238;6.576;2022-10-31T06:24:18;40.33;;;21.57;;
54929;SDS011;40833;53.238;6.576;2022-10-31T06:26:43;38.60;;;20.37;;
54929;SDS011;40833;53.238;6.576;2022-10-31T06:29:09;43.20;;;22.93;;
54929;SDS011;40833;53.238;6.576;2022-10-31T06:31:35;40.53;;;20.97;;
54929;SDS011;40833;53.238;6.576;2022-10-31T06:34:00;49.13;;;23.40;;
54929;SDS011;40833;53.238;6.576;2022-10-31T06:36:26;44.53;;;22.93;;
54929;SDS011;40833;53.238;6.576;2022-10-31T06:38:51;46.97;;;21.93;;
54929;SDS011;40833;53.238;6.576;2022-10-31T06:41:17;42.17;;;20.63;;
54929;SDS011;40833;53.238;6.576;2022-10-31T06:43:45;42.30;;;21.30;;
54929;SDS011;40833;53.238;6.576;2022-10-31T06:46:12;39.33;;;22.60;;
54929;SDS011;40833;53.238;6.576;2022-10-31T06:48:37;42.43;;;21.23;;
54929;SDS011;40833;53.238;6.576;2022-10-31T06:51:05;39.10;;;20.53;;
54929;SDS011;40833;53.238;6.576;2022-10-31T06:53:30;49.30;;;22.43;;
54929;SDS011;40833;53.238;6.576;2022-10-31T06:55:59;36.97;;;20.00;;
54929;SDS011;40833;53.238;6.576;2022-10-31T06:58:25;37.70;;;20.13;;
54929;SDS011;40833;53.238;6.576;2022-10-31T07:00:50;41.53;;;20.27;;
54929;SDS011;40833;53.238;6.576;2022-10-31T07:03:16;49.53;;;21.90;;
54929;SDS011;40833;53.238;6.576;2022-10-31T07:05:42;35.67;;;20.60;;
54929;SDS011;40833;53.238;6.576;2022-10-31T07:08:10;34.50;;;19.43;;
54929;SDS011;40833;53.238;6.576;2022-10-31T07:10:38;31.67;;;19.23;;
54929;SDS011;40833;53.238;6.576;2022-10-31T07:13:06;36.70;;;19.60;;
54929;SDS011;40833;53.238;6.576;2022-10-31T07:15:38;37.53;;;18.80;;
54929;SDS011;40833;53.238;6.576;2022-10-31T07:18:05;37.70;;;21.00;;
54929;SDS011;40833;53.238;6.576;2022-10-31T07:20:32;36.87;;;18.87;;
54929;SDS011;40833;53.238;6.576;2022-10-31T07:22:58;40.17;;;19.90;;
54929;SDS011;40833;53.238;6.576;2022-10-31T07:25:25;37.93;;;21.50;;
54929;SDS011;40833;53.238;6.576;2022-10-31T07:27:51;34.43;;;18.63;;
54929;SDS011;40833;53.238;6.576;2022-10-31T07:30:17;37.87;;;20.50;;
54929;SDS011;40833;53.238;6.576;2022-10-31T07:32:44;37.00;;;21.10;;
54929;SDS011;40833;53.238;6.576;2022-10-31T07:35:14;47.17;;;24.00;;
54929;SDS011;40833;53.238;6.576;2022-10-31T07:37:44;45.70;;;23.57;;
54929;SDS011;40833;53.238;6.576;2022-10-31T07:40:10;45.13;;;25.00;;
54929;SDS011;40833;53.238;6.576;2022-10-31T07:42:41;48.80;;;26.27;;
54929;SDS011;40833;53.238;6.576;2022-10-31T07:45:09;55.67;;;25.60;;
54929;SDS011;40833;53.238;6.576;2022-10-31T07:47:39;54.97;;;26.63;;
54929;SDS011;40833;53.238;6.576;2022-10-31T07:50:05;55.53;;;28.17;;
54929;SDS011;40833;53.238;6.576;2022-10-31T07:52:32;64.63;;;29.97;;
54929;SDS011;40833;53.238;6.576;2022-10-31T07:54:58;57.97;;;29.87;;
54929;SDS011;40833;53.238;6.576;2022-10-31T07:57:23;50.33;;;28.47;;
54929;SDS011;40833;53.238;6.576;2022-10-31T07:59:49;55.33;;;29.73;;
54929;SDS011;40833;53.238;6.576;2022-10-31T08:02:15;52.80;;;29.00;;
54929;SDS011;40833;53.238;6.576;2022-10-31T08:04:41;43.43;;;26.27;;
54929;SDS011;40833;53.238;6.576;2022-10-31T08:07:07;49.50;;;26.33;;
54929;SDS011;40833;53.238;6.576;2022-10-31T08:09:32;44.33;;;24.73;;
54929;SDS011;40833;53.238;6.576;2022-10-31T08:11:58;44.30;;;24.50;;
54929;SDS011;40833;53.238;6.576;2022-10-31T08:14:24;42.57;;;24.63;;
54929;SDS011;40833;53.238;6.576;2022-10-31T08:16:49;40.17;;;23.27;;
54929;SDS011;40833;53.238;6.576;2022-10-31T08:19:17;42.07;;;22.77;;
54929;SDS011;40833;53.238;6.576;2022-10-31T08:21:42;37.23;;;22.57;;
54929;SDS011;40833;53.238;6.576;2022-10-31T08:24:08;39.57;;;21.70;;
54929;SDS011;40833;53.238;6.576;2022-10-31T08:26:34;36.40;;;21.80;;
54929;SDS011;40833;53.238;6.576;2022-10-31T08:29:00;42.07;;;21.40;;
54929;SDS011;40833;53.238;6.576;2022-10-31T08:31:26;40.67;;;20.23;;
54929;SDS011;40833;53.238;6.576;2022-10-31T08:33:53;31.13;;;19.13;;
54929;SDS011;40833;53.238;6.576;2022-10-31T08:36:19;34.53;;;20.60;;
54929;SDS011;40833;53.238;6.576;2022-10-31T08:38:48;33.23;;;21.00;;
54929;SDS011;40833;53.238;6.576;2022-10-31T08:41:14;35.27;;;21.00;;
54929;SDS011;40833;53.238;6.576;2022-10-31T08:43:40;39.50;;;19.83;;
54929;SDS011;40833;53.238;6.576;2022-10-31T08:46:06;36.00;;;20.40;;
54929;SDS011;40833;53.238;6.576;2022-10-31T08:48:32;34.23;;;21.20;;
54929;SDS011;40833;53.238;6.576;2022-10-31T08:50:58;32.97;;;18.97;;
54929;SDS011;40833;53.238;6.576;2022-10-31T08:53:24;40.87;;;21.27;;
54929;SDS011;40833;53.238;6.576;2022-10-31T08:55:53;33.60;;;19.47;;
54929;SDS011;40833;53.238;6.576;2022-10-31T08:58:20;32.23;;;19.60;;
54929;SDS011;40833;53.238;6.576;2022-10-31T09:00:46;30.53;;;19.00;;
54929;SDS011;40833;53.238;6.576;2022-10-31T09:03:14;34.27;;;19.27;;
54929;SDS011;40833;53.238;6.576;2022-10-31T09:05:42;30.17;;;18.40;;
54929;SDS011;40833;53.238;6.576;2022-10-31T09:08:08;30.07;;;18.50;;
54929;SDS011;40833;53.238;6.576;2022-10-31T09:10:35;29.23;;;19.13;;
54929;SDS011;40833;53.238;6.576;2022-10-31T09:13:05;30.33;;;18.20;;
54929;SDS011;40833;53.238;6.576;2022-10-31T09:15:35;34.37;;;17.83;;
54929;SDS011;40833;53.238;6.576;2022-10-31T09:18:03;30.73;;;18.53;;
54929;SDS011;40833;53.238;6.576;2022-10-31T09:20:30;30.60;;;17.93;;
54929;SDS011;40833;53.238;6.576;2022-10-31T09:22:58;30.10;;;18.73;;
54929;SDS011;40833;53.238;6.576;2022-10-31T09:25:28;33.57;;;18.33;;
54929;SDS011;40833;53.238;6.576;2022-10-31T09:27:57;35.03;;;18.00;;
54929;SDS011;40833;53.238;6.576;2022-10-31T09:30:29;29.33;;;19.33;;
54929;SDS011;40833;53.238;6.576;2022-10-31T09:32:56;30.57;;;19.07;;
54929;SDS011;40833;53.238;6.576;2022-10-31T09:35:25;34.23;;;20.43;;
54929;SDS011;40833;53.238;6.576;2022-10-31T09:37:55;34.63;;;21.40;;
54929;SDS011;40833;53.238;6.576;2022-10-31T09:40:21;28.20;;;18.70;;
54929;SDS011;40833;53.238;6.576;2022-10-31T09:43:20;32.93;;;18.77;;
54929;SDS011;40833;53.238;6.576;2022-10-31T09:51:40;25.50;;;17.80;;
54929;SDS011;40833;53.238;6.576;2022-10-31T09:54:32;21.97;;;16.17;;
54929;SDS011;40833;53.238;6.576;2022-10-31T09:57:03;24.10;;;16.63;;
54929;SDS011;40833;53.238;6.576;2022-10-31T09:59:34;25.33;;;16.27;;
54929;SDS011;40833;53.238;6.576;2022-10-31T10:02:20;24.05;;;15.43;;
54929;SDS011;40833;53.238;6.576;2022-10-31T10:05:00;21.03;;;14.73;;
54929;SDS011;40833;53.238;6.576;2022-10-31T10:09:57;24.13;;;15.47;;
54929;SDS011;40833;53.238;6.576;2022-10-31T10:15:15;18.37;;;14.13;;
54929;SDS011;40833;53.238;6.576;2022-10-31T10:18:14;21.43;;;14.93;;
54929;SDS011;40833;53.238;6.576;2022-10-31T10:21:16;20.00;;;13.90;;
54929;SDS011;40833;53.238;6.576;2022-10-31T10:26:38;21.10;;;12.70;;
54929;SDS011;40833;53.238;6.576;2022-10-31T10:31:58;20.03;;;13.53;;
54929;SDS011;40833;53.238;6.576;2022-10-31T10:40:07;18.47;;;10.00;;
54929;SDS011;40833;53.238;6.576;2022-10-31T10:43:19;12.33;;;8.90;;
54929;SDS011;40833;53.238;6.576;2022-10-31T10:45:52;12.75;;;9.00;;
54929;SDS011;40833;53.238;6.576;2022-10-31T10:51:15;17.77;;;9.33;;
54929;SDS011;40833;53.238;6.576;2022-10-31T10:56:40;18.93;;;8.90;;
54929;SDS011;40833;53.238;6.576;2022-10-31T10:59:27;12.47;;;8.33;;
54929;SDS011;40833;53.238;6.576;2022-10-31T11:01:55;14.73;;;8.00;;
54929;SDS011;40833;53.238;6.576;2022-10-31T11:04:28;11.73;;;8.53;;
54929;SDS011;40833;53.238;6.576;2022-10-31T11:07:04;12.17;;;8.43;;
54929;SDS011;40833;53.238;6.576;2022-10-31T11:09:32;13.93;;;9.07;;
54929;SDS011;40833;53.238;6.576;2022-10-31T11:11:59;15.57;;;8.43;;
54929;SDS011;40833;53.238;6.576;2022-10-31T11:14:31;15.90;;;9.73;;
54929;SDS011;40833;53.238;6.576;2022-10-31T11:17:17;13.93;;;9.47;;
54929;SDS011;40833;53.238;6.576;2022-10-31T11:19:47;14.37;;;9.27;;
54929;SDS011;40833;53.238;6.576;2022-10-31T11:22:16;15.07;;;8.67;;
54929;SDS011;40833;53.238;6.576;2022-10-31T11:24:43;12.80;;;8.90;;
54929;SDS011;40833;53.238;6.576;2022-10-31T11:27:16;15.73;;;8.90;;
54929;SDS011;40833;53.238;6.576;2022-10-31T11:29:46;17.73;;;10.13;;
54929;SDS011;40833;53.238;6.576;2022-10-31T11:32:16;13.30;;;8.70;;
54929;SDS011;40833;53.238;6.576;2022-10-31T11:34:45;11.77;;;8.70;;
54929;SDS011;40833;53.238;6.576;2022-10-31T11:37:21;11.87;;;7.87;;
54929;SDS011;40833;53.238;6.576;2022-10-31T11:39:55;10.13;;;7.17;;
54929;SDS011;40833;53.238;6.576;2022-10-31T11:42:27;13.40;;;7.80;;
54929;SDS011;40833;53.238;6.576;2022-10-31T11:45:13;17.00;;;7.73;;
54929;SDS011;40833;53.238;6.576;2022-10-31T11:47:43;13.60;;;7.63;;
54929;SDS011;40833;53.238;6.576;2022-10-31T11:50:18;16.27;;;6.57;;
54929;SDS011;40833;53.238;6.576;2022-10-31T11:52:45;11.83;;;6.20;;
54929;SDS011;40833;53.238;6.576;2022-10-31T12:08:38;12.83;;;6.40;;
54929;SDS011;40833;53.238;6.576;2022-10-31T12:11:11;16.03;;;7.50;;
54929;SDS011;40833;53.238;6.576;2022-10-31T12:13:54;14.07;;;6.73;;
54929;SDS011;40833;53.238;6.576;2022-10-31T12:17:12;19.50;;;7.70;;
54929;SDS011;40833;53.238;6.576;2022-10-31T12:19:30;17.43;;;6.97;;
54929;SDS011;40833;53.238;6.576;2022-10-31T12:30:26;8.90;;;6.40;;
54929;SDS011;40833;53.238;6.576;2022-10-31T12:36:07;8.60;;;5.27;;
54929;SDS011;40833;53.238;6.576;2022-10-31T12:41:50;15.00;;;5.37;;
54929;SDS011;40833;53.238;6.576;2022-10-31T12:50:19;17.53;;;4.33;;
54929;SDS011;40833;53.238;6.576;2022-10-31T12:53:49;10.17;;;4.17;;
54929;SDS011;40833;53.238;6.576;2022-10-31T12:56:06;11.80;;;4.17;;
54929;SDS011;40833;53.238;6.576;2022-10-31T12:58:36;12.30;;;4.53;;
54929;SDS011;40833;53.238;6.576;2022-10-31T13:06:56;11.67;;;4.77;;
54929;SDS011;40833;53.238;6.576;2022-10-31T13:09:36;9.90;;;4.73;;
54929;SDS011;40833;53.238;6.576;2022-10-31T13:12:08;11.27;;;4.63;;
54929;SDS011;40833;53.238;6.576;2022-10-31T13:14:39;9.03;;;4.50;;
54929;SDS011;40833;53.238;6.576;2022-10-31T13:20:12;13.00;;;5.47;;
54929;SDS011;40833;53.238;6.576;2022-10-31T13:22:49;16.23;;;6.20;;
54929;SDS011;40833;53.238;6.576;2022-10-31T13:25:23;15.67;;;5.83;;
54929;SDS011;40833;53.238;6.576;2022-10-31T13:28:02;12.23;;;5.10;;
54929;SDS011;40833;53.238;6.576;2022-10-31T13:30:36;15.07;;;5.13;;
54929;SDS011;40833;53.238;6.576;2022-10-31T13:33:08;16.27;;;4.80;;
54929;SDS011;40833;53.238;6.576;2022-10-31T13:35:54;15.82;;;5.82;;
54929;SDS011;40833;53.238;6.576;2022-10-31T13:38:31;20.77;;;3.97;;
54929;SDS011;40833;53.238;6.576;2022-10-31T13:43:59;8.77;;;2.73;;
54929;SDS011;40833;53.238;6.576;2022-10-31T13:46:26;7.10;;;2.83;;
54929;SDS011;40833;53.238;6.576;2022-10-31T13:49:03;11.40;;;2.50;;
54929;SDS011;40833;53.238;6.576;2022-10-31T13:51:46;5.97;;;2.20;;
54929;SDS011;40833;53.238;6.576;2022-10-31T13:57:25;6.97;;;2.40;;
54929;SDS011;40833;53.238;6.576;2022-10-31T14:02:47;7.30;;;2.63;;
54929;SDS011;40833;53.238;6.576;2022-10-31T14:05:26;15.70;;;2.93;;
54929;SDS011;40833;53.238;6.576;2022-10-31T14:07:59;13.43;;;3.50;;
54929;SDS011;40833;53.238;6.576;2022-10-31T14:10:38;14.47;;;4.93;;
54929;SDS011;40833;53.238;6.576;2022-10-31T14:16:00;11.70;;;4.33;;
54929;SDS011;40833;53.238;6.576;2022-10-31T14:18:30;14.30;;;4.40;;
54929;SDS011;40833;53.238;6.576;2022-10-31T14:21:13;12.33;;;4.50;;
54929;SDS011;40833;53.238;6.576;2022-10-31T14:23:48;14.50;;;4.23;;
54929;SDS011;40833;53.238;6.576;2022-10-31T14:26:20;12.23;;;4.27;;
54929;SDS011;40833;53.238;6.576;2022-10-31T14:28:46;9.87;;;4.60;;
54929;SDS011;40833;53.238;6.576;2022-10-31T14:34:52;8.43;;;3.90;;
54929;SDS011;40833;53.238;6.576;2022-10-31T14:53:03;11.10;;;4.13;;
54929;SDS011;40833;53.238;6.576;2022-10-31T14:55:31;9.10;;;3.57;;
54929;SDS011;40833;53.238;6.576;2022-10-31T14:57:59;8.37;;;3.27;;
54929;SDS011;40833;53.238;6.576;2022-10-31T15:00:27;14.13;;;3.77;;
54929;SDS011;40833;53.238;6.576;2022-10-31T15:05:52;15.53;;;3.23;;
54929;SDS011;40833;53.238;6.576;2022-10-31T15:11:17;14.63;;;4.17;;
54929;SDS011;40833;53.238;6.576;2022-10-31T15:16:16;13.10;;;5.53;;
54929;SDS011;40833;53.238;6.576;2022-10-31T15:19:16;9.18;;;4.18;;
54929;SDS011;40833;53.238;6.576;2022-10-31T15:21:46;9.87;;;4.17;;
54929;SDS011;40833;53.238;6.576;2022-10-31T15:24:14;19.00;;;5.33;;
54929;SDS011;40833;53.238;6.576;2022-10-31T15:26:43;11.33;;;4.77;;
54929;SDS011;40833;53.238;6.576;2022-10-31T15:29:19;14.77;;;5.37;;
54929;SDS011;40833;53.238;6.576;2022-10-31T15:31:54;12.48;;;4.90;;
54929;SDS011;40833;53.238;6.576;2022-10-31T15:34:26;13.63;;;5.60;;
54929;SDS011;40833;53.238;6.576;2022-10-31T15:36:56;18.17;;;7.30;;
54929;SDS011;40833;53.238;6.576;2022-10-31T15:39:29;15.40;;;6.70;;
54929;SDS011;40833;53.238;6.576;2022-10-31T15:41:58;13.80;;;6.43;;
54929;SDS011;40833;53.238;6.576;2022-10-31T15:44:29;14.03;;;7.43;;
54929;SDS011;40833;53.238;6.576;2022-10-31T15:47:06;17.37;;;7.30;;
54929;SDS011;40833;53.238;6.576;2022-10-31T15:49:50;15.40;;;7.07;;
54929;SDS011;40833;53.238;6.576;2022-10-31T15:52:40;14.47;;;7.77;;
54929;SDS011;40833;53.238;6.576;2022-10-31T15:57:33;16.47;;;9.10;;
54929;SDS011;40833;53.238;6.576;2022-10-31T16:00:06;21.03;;;9.00;;
54929;SDS011;40833;53.238;6.576;2022-10-31T16:02:46;16.83;;;9.13;;
54929;SDS011;40833;53.238;6.576;2022-10-31T16:05:16;17.23;;;9.20;;
54929;SDS011;40833;53.238;6.576;2022-10-31T16:07:50;18.25;;;8.10;;
54929;SDS011;40833;53.238;6.576;2022-10-31T16:10:21;17.73;;;8.67;;
54929;SDS011;40833;53.238;6.576;2022-10-31T16:12:51;15.67;;;7.90;;
54929;SDS011;40833;53.238;6.576;2022-10-31T16:15:19;16.67;;;9.10;;
54929;SDS011;40833;53.238;6.576;2022-10-31T16:17:49;22.20;;;9.20;;
54929;SDS011;40833;53.238;6.576;2022-10-31T16:20:23;19.10;;;9.57;;
54929;SDS011;40833;53.238;6.576;2022-10-31T16:22:52;20.40;;;9.27;;
54929;SDS011;40833;53.238;6.576;2022-10-31T16:25:28;14.23;;;8.53;;
54929;SDS011;40833;53.238;6.576;2022-10-31T16:28:04;14.37;;;9.30;;
54929;SDS011;40833;53.238;6.576;2022-10-31T16:30:39;17.13;;;8.87;;
54929;SDS011;40833;53.238;6.576;2022-10-31T16:38:53;15.70;;;7.23;;
54929;SDS011;40833;53.238;6.576;2022-10-31T16:41:19;13.17;;;8.03;;
54929;SDS011;40833;53.238;6.576;2022-10-31T16:43:45;13.10;;;6.87;;
54929;SDS011;40833;53.238;6.576;2022-10-31T16:46:21;13.50;;;7.00;;
54929;SDS011;40833;53.238;6.576;2022-10-31T16:48:48;10.67;;;5.97;;
54929;SDS011;40833;53.238;6.576;2022-10-31T16:51:15;13.97;;;7.60;;
54929;SDS011;40833;53.238;6.576;2022-10-31T16:53:40;12.20;;;6.87;;
54929;SDS011;40833;53.238;6.576;2022-10-31T16:56:23;13.47;;;6.83;;
54929;SDS011;40833;53.238;6.576;2022-10-31T16:58:53;12.00;;;5.80;;
54929;SDS011;40833;53.238;6.576;2022-10-31T17:01:22;9.00;;;5.70;;
54929;SDS011;40833;53.238;6.576;2022-10-31T17:03:48;10.73;;;5.70;;
54929;SDS011;40833;53.238;6.576;2022-10-31T17:06:13;8.67;;;5.83;;
54929;SDS011;40833;53.238;6.576;2022-10-31T17:08:41;13.10;;;5.87;;
54929;SDS011;40833;53.238;6.576;2022-10-31T17:11:08;13.10;;;6.20;;
54929;SDS011;40833;53.238;6.576;2022-10-31T17:13:46;9.73;;;7.30;;
54929;SDS011;40833;53.238;6.576;2022-10-31T17:16:12;12.43;;;7.90;;
54929;SDS011;40833;53.238;6.576;2022-10-31T17:18:41;11.07;;;7.30;;